aviador You're here:

KDYB Decoded Metar

in
Report Time2017-10-21 15:35:00
UTC Time2017-10-21 15:46:10
Flight Rules vfr VFR
Wind060° at 03 kt
W.Decomp.*RWY 06: 3.0 kt HW -0 kt LCW
W.Rank060° ranks 36
Current wind is below 060° avg. (4.3)
Visibility9999 m
Phenomena:N/A
Clouds:N/A
Expected CloudBase > 3,200 ft AGL from Temp-Dew spread
CeilingNone
Temp23°C
Dew Point15°C (61% RH)
QNH1026 hPa
Raw Report
KDYB 211535Z AUTO 06003KT 10SM CLR 23/15 A3031 RMK AO1=

Extra information for KDYB:More info

Social comments